デンバー の空港の天気 - METARとTAF

デンバー国際空港 ( KDEN / DEN ) - アメリカ コロラド州デンバー
飛行場実況気象(Metar)
観測時間02/17 07:53 MST (02/17 14:53 UTC)
風向・風速西 4m/s
視程10km以上
天気現象
少しの雲 雲底高度 1520m
少しの雲 雲底高度 2740m
全天の4割程度の雲 雲底高度 6710m
気温-5.6℃
湿度45%
気圧1012.1hPa
METARKDEN 171453Z 27007KT 10SM FEW050 FEW090 SCT220 M06/M16 A2979 RMK AO2 SLP121 T10561156 53012
過去の天気等 Google飛行場航空写真 Wunderground天気予報

過去48時間のMETAR

飛行場予報(TAF)
発表時間: 2/17 04:42 MST (2/17 11:42 UTC)
予報対象時間: 17日5時 MST ~ 18日11時 MST
風向・風速西南西 4m/s
視程10km以上
少しの雲 雲底高度 2440m
全天の4割程度の雲 雲底高度 3660m
17日8時 MST から
風向・風速南 3m/s
視程10km以上
少しの雲 雲底高度 2440m
全天の4割程度の雲 雲底高度 3660m
17日11時 MST から
風向・風速東北東 4m/s
視程10km以上
少しの雲 雲底高度 2440m
全天の4割程度の雲 雲底高度 3660m
17日14時 MST から
風向・風速東 7m/s 瞬間風速 11m/s
視程10km以上
全天の4割程度の雲 雲底高度 1520m
全天の8割程度の雲 雲底高度 2440m
17日16時 MST から 確率 30% で
視程4830m
天気現象弱い雪
全天を覆う雲 雲底高度 760m
17日20時 MST から
風向・風速東北東 6m/s
視程4830m
天気現象弱い雪 もや
全天を覆う雲 雲底高度 370m
17日23時 MST から
風向・風速東北東 5m/s
視程3220m
天気現象弱い雪 もや
全天を覆う雲 雲底高度 240m
18日1時 MST から
風向・風速東 5m/s
視程1610m
天気現象弱い雪 もや
全天を覆う雲 雲底高度 150m
18日9時 MST から
風向・風速東南東 6m/s
視程4830m
天気現象弱い雪 もや
全天を覆う雲 雲底高度 370m
KDEN 171142Z 1712/1818 24007KT P6SM FEW080 SCT120
FM171500 17006KT P6SM FEW080 SCT120
FM171800 06007KT P6SM FEW080 SCT120
FM172100 08014G22KT P6SM SCT050 BKN080
PROB30 1723/1803 3SM -SN OVC025
FM180300 07012KT 3SM -SN BR OVC012
FM180600 07009KT 2SM -SN BR OVC008
FM180800 09009KT 1SM -SN BR OVC005
FM181600 11012KT 3SM -SN BR OVC012